Portada
METAR-TAF:

METAR-TAF

Aeroports :

Phitsanulok, Tailàndia

latitud: 16-46-23N, longitud: 100-16-56E, altitud: 47 m

Observació

L'informe es va fer fa 50 minuts, a les 02:00 UTC
Vent 3 kt del Sud, variant entre Sud/Sud-Est i Sud-Oest
Temperatura 27°C
Humitat 94%
Pressió 1008 hPa
Visibilitat 10 km o més
Cel ennuvolat a una alçada de 1000 ft

METAR: VTPP 300200Z 18003KT 150V220 9999 BKN010 27/26 Q1008 NOSIG

Hora: 09:50 (02:50 UTC)

Pronòstic

L'informe es va fer fa 3 hores i 50 minuts, a les 23:00 UTC
Pronòstic vàlid del 30 a les 00 UTC al 30 a les 24 UTC
Vent 5 kt del Oest
Visibilitat 10 km o més
Cel ennuvolat a una alçada de 3000 ft
Temporalment
l' 30 a les 08 UTC al 30 a les 14 UTC
Vent 15 kt del Nord-Oest amb ràfegues de 25 kt
Visibilitat: 4000 m
Escasses núvols a una alçada de 2000 ft, Cumulonimbus.
Cel ennuvolat a una alçada de 2500 ft
tempesta, pluja

TAF: VTPP 292300Z 3000/3024 26005KT 9999 BKN030 TEMPO 3008/3014 32015G25KT 4000 TSRA FEW020CB BKN025

Observacions i pronòstics meteorològics de més de 4000 aeroports (METAR i TAF).

Les estacions disponibles són els punts grocs i vermells al mapa.

Posi el ratolí al punt desitjat per veure el nom de l'estació.

Feu clic per veure les observacions i els pronòstics meteorològics.

Per canviar el mapa: feu clic els botons verds amb una creu de color negre per apropar; al botó verd amb un guió per allunyar la imatge; o en les fletxes verdes per a mapes adjacents.


METAR-TAF: